Date,TemperatureHighF,TemperatureAvgF,TemperatureLowF,DewpointHighF,DewpointAvgF,DewpointLowF,HumidityHigh,HumidityAvg,HumidityLow,PressureMaxIn,PressureMinIn,WindSpeedMaxMPH,WindSpeedAvgMPH,GustSpeedMaxMPH,PrecipitationSumIn
2013-1-1,17.0,10.1,2.4,7.0,2.9,-1.0,85,73,62,30.30,30.25,8,2,11,0.00
2013-1-2,29.5,18.5,4.4,21.0,11.4,0.0,84,74,59,30.27,30.13,7,3,15,0.00
2013-1-3,25.6,21.9,12.0,23.0,18.2,8.0,89,85,81,30.32,30.13,11,5,16,0.00
2013-1-4,30.7,21.0,9.9,22.0,15.8,6.0,87,80,68,30.29,30.18,18,6,23,0.00
2013-1-5,34.8,27.0,13.4,32.0,24.3,11.0,95,89,77,30.28,29.95,13,4,20,0.08
2013-1-6,34.2,23.4,12.1,32.0,19.3,10.0,91,84,78,30.36,29.94,14,6,20,0.00
2013-1-7,40.2,26.4,11.3,27.0,20.4,9.0,92,79,54,30.36,30.12,13,4,26,0.00
2013-1-8,39.1,32.3,22.8,32.0,27.7,21.0,93,83,75,30.17,30.03,19,4,19,0.00
2013-1-9,41.4,34.9,24.9,32.0,27.5,22.0,90,75,56,30.51,30.02,16,6,29,0.00
2013-1-10,43.0,31.8,21.6,37.0,27.6,19.0,96,85,57,30.53,29.91,11,4,15,0.69
2013-1-11,48.7,45.0,38.3,47.0,43.9,37.0,97,96,91,29.89,29.67,15,5,18,0.12
2013-1-12,51.0,36.6,23.3,46.0,31.8,20.0,91,83,75,30.03,29.68,17,6,20,0.00
2013-1-13,23.2,18.0,10.8,21.0,12.6,5.0,90,79,73,30.29,29.92,13,6,21,0.00
2013-1-14,23.5,13.4,6.7,11.0,6.9,3.0,89,76,56,30.51,30.30,8,2,11,0.00
2013-1-15,28.8,16.2,5.5,17.0,10.3,3.0,90,79,55,30.50,30.18,7,1,12,0.03
2013-1-16,33.9,24.3,10.0,30.0,18.8,7.0,91,80,62,30.17,29.87,14,3,19,0.00
2013-1-17,33.0,22.3,14.6,29.0,12.3,7.0,85,66,47,30.45,30.12,11,3,15,0.00
2013-1-18,41.7,30.4,14.4,32.0,23.9,11.0,90,77,66,30.47,29.92,19,6,27,0.01
2013-1-19,45.8,37.6,18.7,35.0,29.3,7.0,79,72,54,30.00,29.73,23,7,38,0.00
2013-1-20,18.2,12.6,8.4,7.0,2.1,-1.0,70,63,53,30.35,30.01,23,7,34,0.00
2013-1-21,10.5,5.0,0.3,2.0,-4.9,-9.0,73,64,53,30.36,30.21,14,7,25,0.00
2013-1-22,9.3,3.0,-4.4,-3.0,-6.7,-11.0,75,65,53,30.47,30.36,16,4,18,0.00
2013-1-23,18.2,12.9,7.2,14.0,4.8,-3.0,82,70,60,30.46,30.18,13,4,23,0.00
2013-1-24,18.5,10.7,1.4,9.0,0.3,-6.0,72,64,52,30.72,30.42,11,4,17,0.00
2013-1-25,28.8,20.6,15.3,18.0,13.2,5.0,88,74,57,30.42,30.01,14,5,23,0.00
2013-1-26,24.9,17.5,6.5,14.0,8.5,2.0,83,68,52,30.45,30.25,8,2,11,0.01
2013-1-27,34.7,28.2,22.6,34.0,23.8,14.0,96,84,68,30.41,29.90,14,6,21,0.10
2013-1-28,45.9,39.1,34.7,45.0,37.3,34.0,97,93,82,29.97,29.80,11,3,17,0.23
2013-1-29,60.0,50.5,36.2,58.0,49.5,35.0,98,96,89,29.80,29.44,15,3,16,0.81
2013-1-30,36.0,29.0,16.6,35.0,27.2,12.0,96,92,81,29.67,29.27,16,6,28,0.28
2013-1-31,16.5,9.2,0.2,12.0,3.6,-5.0,86,78,71,30.25,29.68,21,9,26,0.01
2013-2-1,10.4,2.3,-4.9,8.0,-3.8,-10.0,89,76,66,30.44,30.23,14,6,21,0.00
2013-2-2,17.9,11.1,2.8,16.0,7.0,0.0,92,83,71,30.22,30.08,8,2,14,0.00
2013-2-3,19.5,14.7,7.0,16.0,10.0,3.0,91,82,69,30.12,30.02,11,3,19,0.00
2013-2-4,20.8,15.7,3.4,16.0,12.0,0.0,92,85,76,30.06,29.93,9,2,14,0.00
2013-2-5,28.3,19.1,1.0,24.0,15.5,-2.0,92,86,77,30.15,29.86,11,3,16,0.00
2013-2-6,34.4,24.4,6.5,31.0,19.8,4.0,92,83,71,30.28,30.12,9,3,15,0.24
2013-2-7,33.7,31.4,22.6,32.0,29.9,20.0,96,94,86,30.13,29.91,8,2,12,0.37
2013-2-8,24.0,20.7,13.7,21.0,18.0,11.0,93,89,84,30.45,30.07,3,0,8,0.00
2013-2-9,28.8,25.0,19.4,26.0,22.3,18.0,94,89,84,30.45,30.11,12,4,16,0.00
2013-2-10,42.4,35.2,22.1,41.0,33.5,20.0,97,93,72,30.11,29.48,16,6,32,0.84
2013-2-11,39.8,30.2,24.6,32.0,24.4,19.0,88,79,75,30.06,29.50,26,11,35,0.00
2013-2-12,29.7,23.6,19.7,22.0,18.9,17.0,94,83,72,30.14,29.95,15,4,20,0.00
2013-2-13,40.3,29.7,17.5,32.0,25.6,16.0,95,85,67,29.94,29.75,10,2,12,0.00
2013-2-14,37.1,34.2,29.7,32.0,28.1,23.0,89,79,64,30.01,29.64,19,5,25,0.00
2013-2-15,29.7,22.8,15.1,25.0,13.1,7.0,83,67,52,30.24,30.02,10,5,19,0.00
2013-2-16,16.9,11.7,4.2,7.0,3.7,0.0,85,71,57,30.26,30.20,10,3,15,0.00
2013-2-17,27.6,17.0,1.3,20.0,9.1,-2.0,88,72,56,30.28,30.01,11,4,19,0.00
2013-2-18,48.0,35.3,21.3,43.0,29.9,18.0,95,81,71,30.01,29.48,17,7,25,0.34
2013-2-19,20.8,11.2,6.3,18.0,6.6,1.0,89,81,74,30.27,29.62,23,10,29,0.00
2013-2-20,20.5,11.0,4.0,11.0,4.8,-2.0,89,76,67,30.46,30.27,9,3,15,0.00
2013-2-21,26.3,20.1,9.2,23.0,16.7,6.0,93,86,81,30.46,30.02,13,5,23,0.00
2013-2-22,30.7,26.4,23.5,29.0,24.5,22.0,94,92,90,30.01,29.83,13,5,19,0.04
2013-2-23,27.4,23.3,18.7,24.0,18.5,14.0,91,82,70,30.01,29.92,11,5,18,0.01
2013-2-24,36.3,23.3,9.1,23.0,16.7,6.0,91,77,58,30.20,30.01,6,1,8,0.04
2013-2-25,40.7,28.5,15.4,28.0,22.4,13.0,93,79,58,30.21,30.01,6,2,13,0.00
2013-2-26,33.7,32.1,29.9,31.0,28.3,26.0,95,86,74,30.00,29.61,23,8,27,0.00
2013-2-27,32.6,30.4,27.9,30.0,28.5,26.0,95,92,89,29.79,29.60,13,6,17,0.16
2013-2-28,33.9,30.9,23.9,30.0,26.7,19.0,93,85,76,30.14,29.79,14,5,18,0.04
2013-3-1,24.0,23.0,20.7,20.0,18.3,16.0,85,82,77,30.28,30.13,11,5,18,0.00
2013-3-2,25.8,17.8,7.3,16.0,11.0,4.0,88,75,60,30.29,30.23,10,3,15,0.00
2013-3-3,32.0,17.8,2.7,14.0,8.5,-1.0,89,69,45,30.23,30.14,5,1,9,0.00
2013-3-4,30.7,23.7,14.1,25.0,18.3,8.0,89,80,69,30.18,30.04,13,4,18,0.00
2013-3-5,30.9,28.5,24.6,29.0,26.2,23.0,94,91,80,30.10,29.86,11,4,20,0.13
2013-3-6,31.9,28.0,24.6,27.0,24.4,22.0,90,86,81,30.36,30.10,12,4,17,0.23
2013-3-7,35.6,27.6,17.2,25.0,21.9,15.0,92,79,64,30.46,30.34,5,1,8,0.22
2013-3-8,36.6,24.8,10.8,27.0,20.2,8.0,93,83,68,30.52,30.34,11,2,15,0.00
2013-3-9,39.9,35.2,27.6,35.0,30.2,23.0,91,82,77,30.34,29.83,13,6,20,0.14
2013-3-10,43.1,40.2,38.3,42.0,39.0,35.0,97,95,86,29.85,29.62,7,3,15,0.53
2013-3-11,39.1,33.8,30.2,38.0,32.6,27.0,97,95,89,29.82,29.58,15,3,20,0.09
2013-3-12,33.6,28.3,23.6,30.0,23.7,19.0,93,83,70,30.07,29.82,16,7,24,0.03
2013-3-13,30.9,25.0,19.2,20.0,14.1,8.0,85,65,39,30.37,30.07,13,6,20,0.00
2013-3-14,32.4,25.7,16.1,29.0,20.9,12.0,95,82,67,30.37,30.12,10,2,13,0.00
2013-3-15,37.3,31.3,25.2,33.0,29.5,24.0,96,93,79,30.12,29.80,14,2,14,0.17
2013-3-16,31.9,28.8,24.8,29.0,24.9,21.0,94,85,73,30.17,29.79,13,5,16,0.00
2013-3-17,33.9,27.7,20.2,24.0,20.0,14.0,83,73,64,30.26,30.02,13,5,16,0.00
2013-3-18,33.2,27.7,18.5,31.0,24.2,13.0,93,86,77,30.01,29.65,24,7,26,0.12
2013-3-19,28.9,20.3,12.8,14.0,11.1,7.0,81,68,52,30.14,29.82,25,12,34,0.00
2013-3-20,20.7,15.5,9.0,12.0,6.1,1.0,80,67,61,30.17,30.09,17,8,25,0.00
2013-3-21,27.8,18.6,9.0,15.0,9.6,3.0,85,69,55,30.13,30.07,10,3,13,0.00
2013-3-22,35.6,24.3,12.1,21.0,14.9,9.0,87,69,50,30.13,30.07,7,2,9,0.00
2013-3-23,39.1,30.3,21.2,26.0,21.1,17.0,86,70,50,30.18,30.08,5,2,11,0.00
2013-3-24,35.4,31.0,28.8,28.0,25.8,22.0,93,81,70,30.10,29.76,14,5,22,0.00
2013-3-25,34.4,30.1,25.8,27.0,24.1,21.0,85,78,71,30.14,29.81,14,6,22,0.00
2013-3-26,40.5,34.7,30.6,27.0,25.4,21.0,82,70,53,30.29,30.14,8,3,14,0.00
2013-3-27,40.4,34.4,26.0,27.0,24.0,20.0,81,66,49,30.36,30.29,7,2,11,0.00
2013-3-28,46.7,36.2,24.8,27.0,23.6,20.0,85,62,42,30.39,30.32,7,2,11,0.00
2013-3-29,52.2,41.0,28.1,29.0,25.9,23.0,81,57,36,30.36,30.26,8,2,10,0.00
2013-3-30,55.5,42.7,28.2,42.0,33.2,23.0,90,70,55,30.27,29.86,14,4,22,0.00
2013-3-31,53.1,42.3,32.5,42.0,34.8,21.0,95,76,52,29.93,29.74,20,7,27,0.01
2013-4-1,37.4,31.0,26.3,21.0,16.9,13.0,68,56,44,30.24,29.94,12,6,24,0.00
2013-4-2,40.9,30.9,21.6,20.0,15.8,13.0,81,56,34,30.36,30.24,16,4,21,0.00
2013-4-3,44.9,33.0,20.1,21.0,16.4,12.0,82,54,29,30.49,30.34,8,2,11,0.00
2013-4-4,56.9,41.0,25.4,37.0,26.1,16.0,77,57,38,30.34,30.00,11,3,18,0.00
2013-4-5,48.8,39.8,31.2,32.0,27.5,21.0,81,62,44,30.25,30.06,10,4,17,0.00
2013-4-6,64.5,48.8,34.2,50.0,35.9,22.0,91,63,40,30.16,29.60,22,8,38,0.19
2013-4-7,59.7,47.8,36.4,49.0,37.9,32.0,90,70,49,29.96,29.62,14,5,22,0.00
2013-4-8,61.6,49.5,36.5,54.0,45.3,32.0,97,85,74,29.98,29.52,15,5,23,0.72
2013-4-9,44.8,41.1,38.1,43.0,39.5,36.0,96,94,90,30.00,29.86,15,6,22,0.20
2013-4-10,39.5,37.3,33.6,38.0,35.8,32.0,95,94,91,30.04,29.86,18,6,23,1.14
2013-4-11,42.0,38.7,35.9,41.0,37.6,34.0,97,95,92,29.89,29.59,16,6,26,0.25
2013-4-12,41.4,36.6,33.9,38.0,33.4,29.0,94,88,78,29.86,29.59,15,6,24,0.03
2013-4-13,41.8,35.7,31.5,30.0,28.2,26.0,87,75,60,30.02,29.86,17,6,21,0.00
2013-4-14,61.9,45.5,34.3,50.0,36.8,28.0,84,72,58,30.03,29.62,19,7,28,0.02
2013-4-15,61.7,51.5,39.6,53.0,45.7,37.0,96,82,47,30.00,29.62,22,5,29,0.18
2013-4-16,55.3,43.9,33.4,39.0,35.2,31.0,93,73,51,30.30,29.98,11,4,13,0.00
2013-4-17,44.0,41.3,38.6,43.0,37.3,32.0,97,86,66,30.31,29.81,12,5,25,2.19
2013-4-18,61.0,48.5,37.0,59.0,46.8,32.0,98,94,79,29.84,29.41,26,6,30,0.86
2013-4-19,38.5,35.4,32.4,32.0,29.1,24.0,90,78,64,29.96,29.47,22,10,32,0.06
2013-4-20,44.3,35.3,26.1,26.0,21.5,17.0,81,59,37,30.44,29.97,15,3,18,0.00
2013-4-21,52.2,41.2,27.6,35.0,29.4,24.0,85,64,48,30.54,30.31,15,7,26,0.00
2013-4-22,64.8,52.5,38.8,44.0,38.0,32.0,78,60,42,30.32,30.04,14,6,23,0.00
2013-4-23,53.7,43.2,36.8,48.0,40.3,32.0,95,90,63,30.03,29.92,8,3,18,0.35
2013-4-24,50.6,41.8,34.2,33.0,28.8,25.0,83,62,38,30.11,29.98,12,5,19,0.01
2013-4-25,50.1,42.4,34.1,36.0,31.8,27.0,89,68,47,30.33,30.05,12,5,19,0.07
2013-4-26,65.8,51.3,32.7,48.0,38.6,27.0,81,63,50,30.34,30.22,17,6,27,0.00
2013-4-27,65.7,55.4,40.5,49.0,44.3,39.0,96,69,47,30.29,30.01,11,2,16,0.00
2013-4-28,67.3,57.7,51.0,55.0,49.0,43.0,90,73,60,30.00,29.81,6,1,8,0.00
2013-4-29,72.4,60.9,48.6,58.0,53.0,47.0,96,77,57,29.90,29.73,16,5,24,0.00
2013-4-30,85.0,71.6,59.0,61.0,56.4,52.0,90,62,34,29.90,29.73,18,7,27,0.00
2013-5-1,82.2,71.8,60.7,59.0,55.0,51.0,81,58,35,30.11,29.91,12,3,18,0.00
2013-5-2,62.1,48.8,40.5,53.0,43.2,37.0,93,81,66,30.23,30.11,13,6,18,0.28
2013-5-3,49.5,43.5,38.3,48.0,41.8,36.0,95,93,91,30.20,29.98,12,4,17,0.20
2013-5-4,68.8,57.2,48.3,56.0,49.9,46.0,93,78,52,30.05,29.96,17,3,19,0.07
2013-5-5,73.2,59.5,45.6,57.0,47.6,43.0,95,67,41,30.05,29.98,13,2,17,0.00
2013-5-6,73.2,60.1,45.7,49.0,43.5,39.0,84,57,34,30.06,29.98,8,2,12,0.00
2013-5-7,77.2,64.3,48.9,50.0,44.0,39.0,81,51,27,30.06,29.97,6,1,10,0.00
2013-5-8,78.9,64.5,46.8,52.0,47.2,43.0,91,57,31,30.04,29.95,7,1,10,0.00
2013-5-9,67.9,59.0,46.5,61.0,53.7,45.0,95,83,69,29.96,29.83,9,2,15,0.71
2013-5-10,48.2,46.0,43.2,45.0,43.6,42.0,95,91,86,30.01,29.82,10,4,16,0.11
2013-5-11,56.2,47.1,38.7,49.0,37.3,28.0,97,72,40,30.08,29.85,13,4,28,0.00
2013-5-12,53.9,44.1,34.8,32.0,28.0,25.0,77,55,33,30.15,30.08,15,4,20,0.00
2013-5-13,63.8,49.2,29.6,40.0,31.8,27.0,92,56,27,30.20,29.97,11,2,13,0.00
2013-5-14,89.6,71.1,50.9,63.0,50.8,38.0,69,51,26,29.96,29.60,10,4,18,0.00
2013-5-15,80.0,72.5,58.7,60.0,51.4,45.0,66,49,29,29.83,29.60,16,4,20,0.00
2013-5-16,82.6,67.5,51.3,56.0,48.7,40.0,85,55,28,29.95,29.82,8,2,16,0.00
2013-5-17,69.5,61.8,55.6,57.0,48.0,40.0,70,61,51,30.03,29.94,11,4,14,0.00
2013-5-18,80.1,67.0,51.4,66.0,57.2,46.0,91,72,52,30.05,29.92,10,3,14,0.00
2013-5-19,86.0,71.6,56.7,67.0,62.0,55.0,95,74,51,29.94,29.71,14,4,34,0.12
2013-5-20,82.4,73.1,63.9,67.0,61.7,58.0,94,69,47,29.75,29.63,13,5,22,0.30
2013-5-21,77.3,67.7,58.8,66.0,60.3,56.0,95,79,55,29.68,29.62,14,4,28,0.01
2013-5-22,71.9,63.8,58.1,64.0,58.2,54.0,96,83,56,29.73,29.60,11,3,16,0.13
2013-5-23,60.2,52.4,39.1,56.0,47.1,35.0,95,82,63,30.31,29.74,13,4,16,0.04
2013-5-24,63.8,49.4,33.5,44.0,36.7,31.0,92,64,38,30.47,30.31,7,2,12,0.00
2013-5-25,56.5,50.0,44.0,43.0,38.2,33.0,82,65,53,30.41,30.31,9,2,14,0.00
2013-5-26,65.9,53.5,42.1,54.0,44.3,36.0,89,72,51,30.31,30.14,17,3,21,0.12
2013-5-27,56.9,54.3,49.6,56.0,52.7,46.0,97,94,88,30.15,29.87,10,3,14,0.02
2013-5-28,76.6,65.5,53.2,72.0,63.3,52.0,98,92,84,29.86,29.68,14,3,25,0.09
2013-5-29,82.6,71.5,61.7,71.0,65.3,60.0,96,82,62,29.92,29.76,11,3,18,0.01
2013-5-30,82.6,72.7,61.8,71.0,65.7,60.0,96,80,61,29.88,29.71,22,7,32,0.50
2013-5-31,72.7,67.1,61.0,67.0,63.4,60.0,97,88,72,29.81,29.68,17,5,28,0.01
2013-6-1,74.8,67.4,62.8,67.0,63.0,57.0,96,86,75,29.71,29.62,12,4,19,0.04
2013-6-2,63.1,55.5,46.0,58.0,49.4,44.0,95,80,65,30.03,29.70,11,3,17,0.00
2013-6-3,69.2,56.5,41.6,52.0,46.0,40.0,97,71,44,30.13,30.02,7,1,10,0.01
2013-6-4,70.4,59.3,46.1,51.0,46.5,43.0,93,65,41,30.18,30.06,8,2,16,0.00
2013-6-5,65.5,57.5,52.4,59.0,51.9,46.0,91,81,67,30.14,29.95,11,3,14,0.26
2013-6-6,62.9,56.2,51.8,57.0,52.6,49.0,95,88,79,29.97,29.89,8,2,11,0.24
2013-6-7,70.1,58.8,49.3,56.0,49.5,44.0,86,73,46,29.98,29.91,10,2,13,0.00
2013-6-8,74.0,61.1,43.8,53.0,47.2,42.0,95,64,37,30.00,29.93,7,1,10,0.00
2013-6-9,78.5,67.4,54.8,62.0,55.8,44.0,91,67,52,30.00,29.78,17,4,24,0.01
2013-6-10,79.8,69.5,58.6,65.0,62.0,58.0,97,78,58,29.85,29.75,8,1,12,0.01
2013-6-11,82.7,71.6,57.7,68.0,62.7,56.0,96,75,56,29.91,29.77,9,1,13,0.00
2013-6-12,84.5,71.3,63.7,75.0,65.9,62.0,94,83,66,29.91,29.59,11,3,21,0.28
2013-6-13,77.5,68.0,57.9,62.0,58.6,52.0,93,73,51,30.05,29.66,10,3,15,0.00
2013-6-14,77.0,65.0,51.9,62.0,54.6,49.0,90,70,51,30.15,29.99,8,2,11,0.00
2013-6-15,80.0,67.3,56.0,70.0,62.0,51.0,95,83,70,30.05,29.82,8,2,21,0.15
2013-6-16,84.4,74.3,62.8,68.0,61.4,55.0,88,67,39,29.90,29.85,17,3,21,0.00
2013-6-17,86.7,72.4,55.7,61.0,56.8,54.0,94,62,36,29.93,29.82,13,3,20,0.00
2013-6-18,73.1,63.1,51.7,60.0,53.7,45.0,85,72,55,30.08,29.92,14,4,17,0.00
2013-6-19,78.8,64.4,48.7,59.0,50.9,44.0,84,63,44,30.14,30.05,9,2,10,0.00
2013-6-20,86.2,71.2,50.5,66.0,56.8,43.0,79,62,45,30.14,30.03,10,2,13,0.00
2013-6-21,75.5,69.5,63.5,68.0,64.8,60.0,96,85,77,30.12,29.78,15,2,22,0.78
2013-6-22,79.0,70.9,63.8,75.0,68.0,63.0,97,90,81,30.10,29.91,14,3,22,0.73
2013-6-23,84.0,72.1,65.7,75.0,67.5,64.0,96,85,64,30.02,29.86,9,3,17,0.05
2013-6-24,79.7,69.8,64.8,72.0,66.7,64.0,96,89,75,30.05,29.82,11,3,22,0.22
2013-6-25,80.8,71.6,64.0,76.0,69.0,63.0,97,92,77,29.96,29.77,8,2,20,0.87
2013-6-26,80.0,70.7,64.7,72.0,68.0,63.0,97,91,74,29.79,29.70,7,2,15,1.83
2013-6-27,86.7,76.3,66.5,74.0,67.9,62.0,97,77,50,29.78,29.67,12,3,22,0.00
2013-6-28,78.0,70.3,64.4,67.0,62.1,59.0,94,76,57,29.71,29.60,11,4,22,0.05
2013-6-29,70.3,64.7,59.9,63.0,61.2,56.0,96,89,67,29.80,29.59,8,1,17,1.36
2013-6-30,77.8,67.5,59.3,65.0,56.1,49.0,86,68,45,30.01,29.80,16,4,18,0.00
2013-7-1,77.0,67.0,55.9,57.0,52.2,47.0,76,60,41,30.08,30.00,14,4,18,0.00
2013-7-2,74.3,64.0,54.5,56.0,52.4,46.0,92,68,39,30.09,30.04,10,2,18,0.00
2013-7-3,70.0,62.7,53.8,64.0,58.5,52.0,95,86,78,30.07,30.02,4,1,7,0.00
2013-7-4,80.0,68.8,53.5,66.0,60.8,52.0,97,78,53,30.09,30.00,9,2,13,0.01
2013-7-5,82.7,72.1,58.4,70.0,63.2,57.0,96,75,52,30.07,29.99,8,2,15,0.00
2013-7-6,82.8,70.8,57.8,69.0,63.5,56.0,97,79,53,30.04,29.95,9,1,11,0.00
2013-7-7,86.1,76.8,67.4,74.0,69.5,66.0,96,79,59,29.98,29.91,7,2,12,0.00
2013-7-8,86.1,76.4,69.7,77.0,71.8,68.0,94,86,74,29.96,29.89,8,3,23,0.38
2013-7-9,83.0,77.2,70.7,77.0,73.6,70.0,97,89,77,29.96,29.83,13,2,22,0.12
2013-7-10,79.7,74.9,63.1,75.0,66.3,59.0,94,76,54,29.99,29.82,10,2,15,0.00
2013-7-11,80.0,68.8,57.3,64.0,58.6,55.0,95,72,47,30.11,29.99,8,1,9,0.00
2013-7-12,81.3,67.5,52.0,60.0,54.7,50.0,95,67,38,30.16,30.07,7,1,8,0.00
2013-7-13,83.0,69.9,54.6,65.0,59.6,53.0,96,72,47,30.16,30.08,8,2,14,0.00
2013-7-14,86.3,75.1,62.7,72.0,66.5,60.0,93,76,56,30.20,30.14,9,2,10,0.00
2013-7-15,90.0,78.4,67.9,76.0,71.3,65.0,92,80,58,30.25,30.18,7,1,9,0.00
2013-7-16,88.9,79.8,70.3,77.0,73.7,69.0,97,82,65,30.27,30.21,8,2,10,0.00
2013-7-17,91.0,81.2,70.1,77.0,73.6,69.0,97,79,58,30.28,30.14,8,2,12,0.00
2013-7-18,90.8,81.9,70.5,77.0,73.5,69.0,97,77,58,30.16,29.91,10,2,15,0.00
2013-7-19,90.4,83.3,74.4,76.0,73.0,68.0,84,72,57,29.90,29.72,15,5,22,0.00
2013-7-20,86.1,74.1,63.2,70.0,64.7,61.0,93,74,48,29.93,29.79,7,1,12,0.00
2013-7-21,83.5,70.4,60.9,71.0,64.3,59.0,93,82,63,29.94,29.84,9,2,18,0.00
2013-7-22,84.1,73.1,61.1,71.0,65.7,60.0,96,79,59,29.88,29.71,12,2,29,0.27
2013-7-23,75.8,67.4,57.0,64.0,59.6,53.0,94,77,53,29.98,29.68,11,2,16,0.00
2013-7-24,73.8,62.2,52.2,57.0,53.8,51.0,96,76,51,30.07,29.98,7,1,10,0.01
2013-7-25,76.9,65.4,50.3,63.0,57.5,49.0,97,77,57,30.10,29.99,7,1,12,0.00
2013-7-26,71.0,64.8,57.7,68.0,61.9,56.0,96,90,74,29.99,29.86,8,2,13,1.29
2013-7-27,61.6,57.0,53.4,56.0,50.1,47.0,95,78,61,29.95,29.88,10,3,20,0.00
2013-7-28,66.7,58.3,53.3,54.0,50.6,48.0,90,76,60,30.03,29.87,9,4,16,0.00
2013-7-29,74.4,62.3,51.5,61.0,55.6,50.0,93,80,61,30.17,30.03,5,1,10,0.00
2013-7-30,69.9,62.0,53.0,64.0,59.5,52.0,97,92,74,30.18,30.07,9,1,13,0.12
2013-7-31,76.1,66.9,58.9,67.0,63.4,57.0,97,89,72,30.07,29.94,5,1,12,0.01
2013-8-1,77.8,66.9,57.7,62.0,58.4,56.0,96,77,49,29.99,29.91,12,2,15,0.01
2013-8-2,80.8,70.6,60.3,69.0,62.4,58.0,94,76,59,29.95,29.84,9,2,12,0.09
2013-8-3,77.2,68.0,57.2,60.0,56.0,51.0,86,68,44,30.12,29.95,9,1,13,0.00
2013-8-4,76.2,66.0,54.8,62.0,56.7,51.0,89,73,47,30.20,30.11,7,1,9,0.00
2013-8-5,70.5,62.3,54.1,64.0,59.2,53.0,96,90,71,30.12,29.87,10,1,18,0.06
2013-8-6,81.3,71.4,64.2,74.0,68.6,63.0,97,91,75,29.88,29.80,6,1,9,0.40
2013-8-7,83.5,74.7,62.6,73.0,68.3,61.0,96,81,55,29.94,29.76,9,2,15,0.00
2013-8-8,77.1,67.7,60.7,65.0,61.1,56.0,96,80,58,30.03,29.94,8,1,12,0.01
2013-8-9,79.4,68.1,53.9,68.0,60.6,52.0,95,78,62,30.05,29.97,11,2,13,0.00
2013-8-10,77.0,67.1,56.8,63.0,58.0,55.0,93,75,50,30.13,30.05,5,1,12,0.00
2013-8-11,76.5,65.0,53.0,68.0,60.9,52.0,97,87,65,30.13,30.02,6,0,14,0.00
2013-8-12,80.7,71.7,61.0,70.0,65.3,58.0,96,81,64,30.03,29.86,7,2,11,0.00
2013-8-13,70.1,61.7,52.4,58.0,51.8,48.0,91,72,51,30.16,29.94,12,2,14,0.00
2013-8-14,55.2,52.7,51.0,51.0,49.9,49.0,93,90,86,30.17,30.16,0,0,2,0.00
2013-8-30,72.4,70.4,68.8,70.0,68.2,66.0,94,92,88,29.85,29.76,9,3,23,1.05
2013-8-31,76.6,70.3,64.4,71.0,67.0,63.0,95,89,81,29.86,29.78,7,2,10,0.01
2013-9-1,84.8,71.6,59.4,74.0,65.9,58.0,96,83,66,29.82,29.70,6,1,12,0.00
2013-9-2,73.5,64.8,55.2,64.0,58.6,53.0,93,81,58,30.00,29.81,8,2,15,0.00
2013-9-3,74.0,60.6,49.5,60.0,53.6,48.0,95,80,54,30.10,30.00,7,1,10,0.01
2013-9-4,81.9,65.4,49.1,67.0,58.1,48.0,97,79,53,30.13,30.05,6,1,11,0.01
2013-9-5,75.1,66.5,55.1,64.0,58.6,49.0,95,77,61,30.24,30.11,8,2,13,0.00
2013-9-6,83.5,68.7,52.8,69.0,60.8,49.0,91,77,60,30.21,29.99,7,2,12,0.00
2013-9-7,87.4,73.9,62.0,71.0,65.9,60.0,94,78,52,29.99,29.86,10,2,15,0.02
2013-9-8,74.3,69.4,65.2,69.0,65.8,63.0,92,88,81,30.01,29.93,8,3,16,0.00
2013-9-9,90.0,76.9,64.7,79.0,71.1,63.0,95,83,67,29.94,29.78,11,3,15,0.00
2013-9-10,93.3,82.5,69.8,71.0,66.2,63.0,81,60,36,29.95,29.84,11,4,20,0.00
2013-9-11,82.4,74.8,66.9,71.0,67.2,64.0,91,78,60,30.03,29.94,6,2,11,0.05
2013-9-12,76.4,67.2,55.8,65.0,57.0,49.0,94,72,47,30.10,29.96,13,3,20,0.01
2013-9-13,67.1,55.7,45.3,53.0,43.6,40.0,91,66,38,30.22,30.10,8,2,14,0.00
2013-9-14,70.3,55.1,40.9,50.0,45.2,39.0,96,73,46,30.20,30.04,9,2,13,0.00
2013-9-15,56.7,54.1,51.4,55.0,51.5,46.0,95,91,70,30.20,29.99,7,1,12,0.92
2013-9-16,66.3,55.0,45.0,54.0,47.6,42.0,92,78,53,30.39,30.21,8,3,13,0.00
2013-9-17,69.3,56.5,43.5,56.0,50.6,42.0,95,82,61,30.34,30.11,9,2,15,0.00
2013-9-18,74.5,65.0,56.2,68.0,61.2,53.0,93,87,73,30.10,29.90,9,2,14,0.14
2013-9-19,89.2,74.5,67.5,76.0,68.5,65.0,95,83,58,29.92,29.72,9,3,26,0.08
2013-9-20,70.3,64.8,55.1,65.0,59.6,52.0,94,83,65,29.84,29.72,14,5,18,0.03
2013-9-21,63.9,54.7,43.9,52.0,48.3,42.0,94,80,59,29.96,29.83,9,2,16,0.00
2013-9-22,67.4,53.0,40.5,50.0,45.4,39.0,96,78,50,30.08,29.97,6,1,8,0.01
2013-9-23,68.9,54.0,42.8,54.0,47.5,41.0,95,80,54,30.13,30.03,9,2,11,0.00
2013-9-24,71.9,56.9,44.4,55.0,49.2,43.0,95,78,51,30.06,29.94,11,2,15,0.01
2013-9-25,72.1,58.8,48.9,56.0,50.8,46.0,94,77,52,29.99,29.93,7,2,12,0.01
2013-9-26,77.0,60.3,47.4,57.0,50.9,46.0,96,75,39,30.08,29.98,7,2,11,0.00
2013-9-27,80.0,63.4,49.2,59.0,53.0,48.0,95,72,43,30.15,30.03,11,2,16,0.01
2013-9-28,80.8,64.1,48.2,65.0,55.8,45.0,93,76,51,30.05,29.85,16,4,23,0.10
2013-9-29,70.7,56.7,45.2,54.0,47.6,42.0,94,76,37,30.07,29.96,6,1,10,0.01
2013-9-30,74.1,56.9,40.2,52.0,46.0,39.0,95,71,37,30.01,29.86,11,2,16,0.00
2013-10-1,81.9,66.3,52.8,65.0,59.2,50.0,95,79,52,29.95,29.86,12,3,22,0.00
2013-10-2,79.3,64.5,50.6,60.0,50.7,43.0,95,66,32,30.10,29.96,8,1,11,0.01
2013-10-3,74.7,66.0,56.3,70.0,62.9,50.0,95,89,77,29.97,29.82,6,1,11,0.15
2013-10-4,70.3,66.2,62.7,69.0,64.4,61.0,94,93,88,29.98,29.86,7,2,18,0.52
2013-10-5,73.3,65.8,59.6,70.0,63.9,55.0,96,93,84,29.92,29.76,8,2,22,0.93
2013-10-6,58.9,50.0,43.5,52.0,43.0,40.0,93,78,56,29.78,29.70,11,3,16,0.01
2013-10-7,68.3,52.6,43.3,50.0,45.2,41.0,92,78,47,30.09,29.77,13,4,18,0.00
2013-10-8,75.7,56.5,40.3,56.0,46.1,39.0,96,72,37,30.19,30.09,14,1,16,0.00
2013-10-9,73.3,57.3,43.7,52.0,45.8,40.0,94,70,32,30.24,30.13,8,2,14,0.00
2013-10-10,74.2,57.8,44.0,55.0,49.6,42.0,96,77,46,30.18,30.05,7,1,12,0.00
2013-10-11,74.6,60.5,49.6,61.0,53.7,48.0,94,80,57,30.06,29.92,12,3,21,0.01
2013-10-12,68.7,59.4,42.6,62.0,52.1,40.0,93,78,47,30.18,29.92,11,3,16,0.20
2013-10-13,62.3,48.4,36.5,44.0,39.1,34.0,94,73,40,30.43,30.18,8,1,13,0.00
2013-10-14,62.2,48.4,35.6,48.0,41.6,34.0,95,79,55,30.43,30.14,9,2,17,0.01
2013-10-15,64.3,53.4,46.2,60.0,49.0,41.0,94,85,74,30.13,29.75,13,4,18,0.27
2013-10-16,50.7,48.4,45.2,47.0,44.9,41.0,92,88,82,29.96,29.83,13,4,15,0.01
2013-10-17,52.7,45.6,37.4,45.0,42.9,36.0,94,90,71,29.94,29.84,9,1,15,0.36
2013-10-18,46.8,41.8,33.0,42.0,37.9,32.0,95,86,76,29.98,29.85,11,3,17,0.01
2013-10-19,51.5,41.9,33.9,40.0,36.9,32.0,93,83,53,29.95,29.78,12,2,22,0.06
2013-10-20,55.4,44.2,32.8,47.0,39.7,31.0,94,84,69,29.89,29.75,10,2,20,0.01
2013-10-21,51.0,40.0,27.9,44.0,31.4,24.0,89,72,55,29.99,29.80,13,4,22,0.00
2013-10-22,39.8,33.2,26.3,34.0,28.3,24.0,92,82,63,30.02,29.95,5,1,8,0.00
2013-10-23,43.5,34.3,26.7,30.0,27.3,25.0,91,76,58,30.06,29.97,14,3,19,0.01
2013-10-24,39.7,35.3,30.1,29.0,26.4,23.0,83,71,57,30.34,30.05,10,3,17,0.00
2013-10-25,50.3,38.4,24.5,32.0,26.8,21.0,90,65,45,30.43,30.04,15,4,22,0.00
2013-10-26,51.4,43.7,31.4,38.0,30.6,27.0,87,61,46,30.10,29.86,12,4,23,0.00
2013-10-27,53.2,39.1,25.4,34.0,29.5,23.0,92,71,46,30.09,29.97,12,2,17,0.00
2013-10-28,47.4,40.0,31.0,41.0,34.4,28.0,90,80,74,30.41,30.08,11,3,19,0.00
2013-10-29,58.8,44.7,35.6,43.0,37.7,32.0,91,78,45,30.40,30.16,11,3,14,0.00
2013-10-30,56.8,51.6,46.6,55.0,49.4,42.0,95,92,83,30.15,29.76,14,3,18,0.55
2013-10-31,61.0,55.9,43.0,59.0,54.1,40.0,95,93,88,29.75,29.26,20,5,25,0.69
2013-11-1,45.8,43.2,40.0,43.0,40.1,38.0,93,89,85,29.77,29.39,19,5,20,0.05
2013-11-2,46.0,39.3,32.6,40.0,35.9,31.0,93,88,70,30.18,29.77,9,2,12,0.01
2013-11-3,50.6,38.2,26.7,40.0,32.7,25.0,95,82,54,30.34,30.18,10,3,16,0.01
2013-11-4,55.4,48.2,41.3,44.0,40.2,36.0,83,74,62,30.26,30.08,14,6,23,0.00
2013-11-5,52.8,50.2,47.3,50.0,47.0,44.0,93,88,82,30.26,29.92,12,4,22,0.06
2013-11-6,55.4,44.0,31.0,54.0,40.6,26.0,94,88,73,30.20,29.76,15,6,22,0.37
2013-11-7,37.7,32.9,26.7,32.0,28.2,24.0,90,83,73,30.28,30.20,9,3,14,0.00
2013-11-8,45.2,36.5,23.0,35.0,29.9,21.0,93,78,61,30.36,29.90,18,4,22,0.01
2013-11-9,55.7,47.2,37.5,42.0,36.9,25.0,78,68,55,30.13,29.84,15,8,28,0.00
2013-11-10,47.6,39.6,31.5,33.0,30.1,27.0,83,70,53,30.37,30.14,12,4,21,0.00
2013-11-11,44.8,34.1,19.7,35.0,27.5,15.0,92,77,64,30.58,30.09,13,4,17,0.09
2013-11-12,29.7,22.2,16.6,20.0,15.8,13.0,85,76,64,30.77,30.58,11,4,16,0.01
2013-11-13,40.2,28.5,17.2,22.0,17.2,12.0,82,64,42,30.64,30.18,15,6,24,0.01
2013-11-14,47.7,38.7,30.5,30.0,25.4,19.0,68,60,50,30.18,29.94,16,4,22,0.00
2013-11-15,52.9,41.3,31.2,35.0,30.7,25.0,88,67,50,29.99,29.92,10,3,14,0.00
2013-11-16,57.8,48.7,36.5,55.0,46.3,34.0,94,91,85,29.93,29.55,23,7,28,0.05
2013-11-17,66.5,52.1,39.3,62.0,49.0,34.0,94,89,81,29.74,29.09,22,8,38,1.80
2013-11-18,40.3,34.7,26.7,35.0,27.6,23.0,86,76,60,30.29,29.75,23,7,30,0.00
2013-11-19,40.5,29.9,19.6,29.0,24.4,18.0,92,81,61,30.41,30.29,8,2,10,0.00
2013-11-20,40.1,34.8,28.6,35.0,30.2,26.0,93,83,69,30.31,30.12,13,5,21,0.10
2013-11-21,44.6,40.4,36.2,41.0,37.9,34.0,94,90,86,30.25,30.13,7,1,10,0.00
2013-11-22,38.9,32.0,23.2,36.0,27.0,17.0,91,82,65,30.51,30.24,13,4,19,0.02
2013-11-23,22.9,18.7,11.6,17.0,9.1,4.0,81,67,52,30.77,30.47,19,5,26,0.01
2013-11-24,25.9,16.7,7.1,10.0,6.1,3.0,83,64,42,30.78,30.39,11,3,15,0.00
2013-11-25,30.3,26.0,19.5,26.0,20.2,11.0,89,79,60,30.39,30.11,19,5,19,0.00
2013-11-26,31.4,26.1,13.2,26.0,19.8,4.0,88,77,61,30.25,30.07,14,3,22,0.00
2013-11-27,25.7,17.2,8.2,14.0,9.0,2.0,79,71,58,30.32,30.23,11,3,16,0.00
2013-11-28,29.7,22.7,13.9,18.0,14.7,11.0,88,72,60,30.56,30.22,9,2,15,0.00
2013-11-29,32.8,22.7,8.9,23.0,15.5,6.0,91,75,56,30.69,30.43,7,2,13,0.00
2013-11-30,48.5,34.0,25.6,34.0,27.2,21.0,91,77,57,30.42,30.07,10,2,14,0.00
2013-12-1,41.4,32.8,25.2,30.0,27.3,23.0,92,81,63,30.16,30.02,6,1,11,0.00
2013-12-2,41.3,32.9,25.3,34.0,28.5,23.0,93,84,65,30.01,29.77,10,3,13,0.04
2013-12-3,42.5,38.5,34.0,42.0,37.2,32.0,96,94,92,29.76,29.69,8,2,12,0.03
2013-12-4,51.2,45.4,33.4,50.0,44.0,31.0,96,95,89,29.75,29.50,20,4,27,0.04
2013-12-5,32.1,22.2,16.0,29.0,16.2,9.0,90,78,70,30.31,29.70,19,8,26,0.00
2013-12-6,17.7,12.7,7.8,9.0,6.0,2.0,81,75,65,30.62,30.30,8,3,14,0.00
2013-12-7,16.7,8.4,3.4,5.0,2.1,0.0,86,76,57,30.78,30.62,8,2,12,0.00
2013-12-8,22.5,17.8,7.4,20.0,13.9,4.0,92,84,70,30.67,30.00,9,2,15,0.00
2013-12-9,21.8,11.2,-6.1,20.0,6.4,-10.0,92,81,69,30.28,29.99,17,5,22,0.00
2013-12-10,19.7,8.2,-10.3,12.0,1.6,-14.0,85,75,61,30.36,30.05,17,5,26,0.00
2013-12-11,16.6,9.1,-3.6,12.0,2.5,-10.0,89,75,54,30.62,30.33,9,3,20,0.00
2013-12-12,16.6,7.2,-5.8,10.0,0.9,-11.0,88,76,65,30.60,30.27,15,2,20,0.00
2013-12-13,27.9,20.0,8.2,25.0,15.8,6.0,90,83,67,30.28,30.16,10,2,12,0.01
2013-12-14,28.0,24.8,18.7,26.0,22.0,16.0,92,89,85,30.16,29.99,15,5,17,0.00
2013-12-15,20.4,11.5,8.6,17.0,5.3,-1.0,86,76,65,30.20,29.98,16,5,22,0.00
2013-12-16,15.1,9.8,2.9,12.0,3.9,-4.0,90,77,65,30.23,30.09,7,1,10,0.00
2013-12-17,34.1,23.6,14.7,26.0,18.5,12.0,92,81,63,30.14,29.99,20,6,27,0.03
2013-12-18,32.3,22.4,13.0,23.0,15.7,9.0,86,76,54,30.18,29.86,16,4,22,0.00
2013-12-19,35.2,28.5,20.1,30.0,25.6,18.0,93,89,79,29.98,29.85,8,2,14,0.08
2013-12-20,32.1,27.9,24.2,30.0,26.0,22.0,93,92,92,29.86,29.79,8,3,16,0.02
2013-12-21,31.5,26.5,24.0,30.0,24.8,22.0,94,93,92,29.92,29.64,9,2,16,0.00
2013-12-22,31.0,25.6,22.4,29.0,23.3,20.0,93,91,88,30.16,29.67,10,2,15,0.14
2013-12-23,23.2,6.8,-7.1,21.0,3.0,-11.0,92,84,78,30.53,30.17,12,4,16,0.00
2013-12-24,14.7,-0.1,-10.0,12.0,-4.6,-14.0,90,81,69,30.66,30.41,9,2,15,0.01
2013-12-25,23.3,20.4,14.9,21.0,17.5,12.0,91,88,83,30.41,30.14,14,4,20,0.00
2013-12-26,28.3,20.2,8.0,24.0,16.8,5.0,92,86,79,30.32,30.17,15,2,17,0.01
2013-12-27,38.8,26.6,12.6,31.0,22.9,11.0,92,86,74,30.32,30.11,10,2,16,0.11
2013-12-28,42.7,35.6,26.0,34.0,30.3,24.0,93,81,70,30.12,29.82,10,2,14,0.10
2013-12-29,37.8,23.0,0.9,31.0,18.1,-5.0,90,81,73,30.27,29.79,13,4,24,0.00
2013-12-30,5.6,0.2,-8.3,-1.0,-6.8,-13.0,84,73,57,30.41,30.28,6,1,9,0.00
2013-12-31,7.6,2.5,-7.2,4.0,-1.4,-11.0,86,84,77,30.43,30.28,7,1,12,0.00
2014-1-1,15.8,8.6,4.0,13.0,5.3,1.0,89,86,83,30.39,30.30,12,5,19,0.00
2014-1-2,12.8,6.0,-7.4,6.0,1.4,-11.0,85,81,72,30.50,30.27,13,4,18,0.01